Astoria, Oregon
Current Conditions -  °F | °C
As of 2:55 AM on Tuesday 21 Oct 2014 (Local Time) from KAST Reporting Station
Overcast Overcast  
Wind Chill: 55°   Ceiling: 7000
Heat Index: 55°   Visibility: 10mi
Dew Point: 52°   Wind: 7mph
Humidity: 89%   Direction: 190°S
Pressure: 29.83"   Gusts: NA
Location:  46.19°N, 123.83°W
Report Text: KAST 210955Z AUTO 19006KT 10SM SCT045 OVC070 13/11 A2983 RMK AO2 PK WND 23026/0921 RAB22E51 SLP100 P0010 T01280111
Loading
Personal Weather Stations






























Interactive Weather Map
Tropical Storm Tracking
New forecast layout! Learn more

10-Day Weather Forecast

Advertisements
Track Severe Weather on mobile